createdAt,value
2018-09-19T00:01:32.212Z,22.61
2018-09-19T00:06:35.332Z,22.44
2018-09-19T00:11:38.544Z,22.33
2018-09-19T00:16:41.560Z,22.26
2018-09-19T00:21:44.561Z,22.19
2018-09-19T00:26:47.577Z,22.12
2018-09-19T00:31:50.577Z,22.12
2018-09-19T00:36:53.926Z,22.12
2018-09-19T00:41:57.176Z,22.14
2018-09-19T00:47:00.365Z,22.09
2018-09-19T00:52:03.486Z,22.01
2018-09-19T00:57:06.573Z,21.97
2018-09-19T01:02:09.594Z,21.92
2018-09-19T01:07:12.629Z,21.85
2018-09-19T01:12:15.740Z,21.79
2018-09-19T01:17:18.818Z,21.69
2018-09-19T01:22:21.842Z,21.61
2018-09-19T01:27:25.310Z,21.58
2018-09-19T01:32:28.591Z,21.55
2018-09-19T01:37:31.923Z,21.53
2018-09-19T01:42:38.517Z,21.48
2018-09-19T01:47:41.554Z,21.46
2018-09-19T01:52:44.558Z,21.43
2018-09-19T01:57:47.621Z,21.37
2018-09-19T02:02:50.742Z,21.35
2018-09-19T02:07:53.819Z,21.36
2018-09-19T02:12:56.999Z,21.31
2018-09-19T02:18:00.071Z,21.22
2018-09-19T02:23:03.092Z,21.10
2018-09-19T02:28:06.261Z,21.00
2018-09-19T02:33:09.277Z,20.98
2018-09-19T02:38:13.103Z,20.99
2018-09-19T02:43:16.151Z,21.04
2018-09-19T02:48:19.156Z,21.08
2018-09-19T02:53:22.157Z,21.13
2018-09-19T02:58:25.254Z,21.10
2018-09-19T03:03:28.377Z,21.11
2018-09-19T03:08:33.679Z,21.11
2018-09-19T03:13:36.753Z,21.06
2018-09-19T03:18:42.145Z,20.99
2018-09-19T03:23:45.214Z,20.90
2018-09-19T03:28:48.429Z,20.85
2018-09-19T03:33:52.268Z,20.83
2018-09-19T03:38:56.530Z,20.84
2018-09-19T03:44:00.390Z,20.84
2018-09-19T03:49:03.967Z,20.86
2018-09-19T03:54:07.381Z,20.88
2018-09-19T03:59:10.382Z,21.16
2018-09-19T04:04:13.377Z,20.92
2018-09-19T04:09:16.396Z,20.88
2018-09-19T04:14:19.415Z,20.83
2018-09-19T04:19:23.229Z,20.78
2018-09-19T04:24:28.240Z,20.74
2018-09-19T04:29:32.521Z,20.64
2018-09-19T04:34:36.144Z,20.59
2018-09-19T04:39:39.266Z,20.53
2018-09-19T04:44:42.300Z,20.46
2018-09-19T04:49:45.296Z,20.40
2018-09-19T04:54:48.931Z,20.36
2018-09-19T04:59:53.059Z,20.32
2018-09-19T05:04:57.633Z,20.37
2018-09-19T05:10:01.264Z,20.32
2018-09-19T05:15:05.140Z,20.33
2018-09-19T05:20:08.456Z,20.37
2018-09-19T05:25:11.494Z,20.42
2018-09-19T05:30:14.836Z,20.47
2018-09-19T05:35:17.854Z,20.52
2018-09-19T05:40:20.877Z,20.57
2018-09-19T05:45:25.300Z,20.66
2018-09-19T05:50:30.433Z,20.75
2018-09-19T05:55:36.211Z,20.82
2018-09-19T06:00:39.563Z,20.94
2018-09-19T06:05:42.674Z,21.05
2018-09-19T06:10:45.748Z,21.16
2018-09-19T06:15:48.821Z,21.26
2018-09-19T06:20:51.837Z,21.41
2018-09-19T06:25:56.484Z,21.48
2018-09-19T06:31:00.346Z,21.52
2018-09-19T06:36:04.044Z,21.64
2018-09-19T06:41:07.225Z,21.74
2018-09-19T06:46:10.294Z,21.72
2018-09-19T06:51:13.301Z,21.68
2018-09-19T06:56:16.415Z,21.69
2018-09-19T07:01:19.587Z,21.79
2018-09-19T07:06:23.374Z,21.96
2018-09-19T07:11:28.107Z,22.15
2018-09-19T07:16:31.744Z,22.33
2018-09-19T07:21:35.350Z,22.50
2018-09-19T07:26:38.465Z,22.69
2018-09-19T07:31:41.929Z,22.90
2018-09-19T07:36:45.198Z,23.04
2018-09-19T07:41:49.803Z,23.28
2018-09-19T07:46:55.686Z,23.46
2018-09-19T07:52:01.321Z,23.66
2018-09-19T07:57:07.024Z,23.90
2018-09-19T08:02:11.309Z,24.06
2018-09-19T08:07:15.740Z,24.27
2018-09-19T08:12:20.101Z,24.48
2018-09-19T08:17:26.859Z,24.68
2018-09-19T08:22:32.711Z,24.87
2018-09-19T08:27:37.366Z,25.06
2018-09-19T08:32:41.646Z,25.25
2018-09-19T08:37:44.707Z,25.41
2018-09-19T08:42:47.822Z,25.59
2018-09-19T08:47:50.832Z,25.70
2018-09-19T08:52:54.682Z,25.82
2018-09-19T08:57:59.340Z,26.02
2018-09-19T09:03:02.832Z,26.21
2018-09-19T09:08:05.768Z,26.30
2018-09-19T09:13:08.831Z,26.38
2018-09-19T09:18:11.866Z,26.56
2018-09-19T09:23:14.910Z,26.62
2018-09-19T09:28:17.955Z,26.78
2018-09-19T09:33:21.014Z,26.97
2018-09-19T09:38:27.425Z,26.82
2018-09-19T09:43:31.269Z,26.88
2018-09-19T09:48:34.453Z,26.85
2018-09-19T09:53:37.493Z,26.90
2018-09-19T09:58:40.474Z,27.26
2018-09-19T10:03:43.449Z,27.29
2018-09-19T10:08:46.527Z,27.22
2018-09-19T10:13:49.598Z,27.42
2018-09-19T10:18:53.063Z,27.66
2018-09-19T10:23:57.126Z,27.90
2018-09-19T10:29:02.074Z,28.06
2018-09-19T10:34:05.312Z,28.52
2018-09-19T10:39:08.346Z,28.83
2018-09-19T10:44:11.985Z,28.70
2018-09-19T10:49:15.383Z,28.71
2018-09-19T10:54:18.415Z,28.93
2018-09-19T10:59:21.517Z,28.84
2018-09-19T11:04:25.561Z,28.75
2018-09-19T11:09:30.152Z,28.87
2018-09-19T11:14:33.401Z,29.03
2018-09-19T11:19:36.411Z,29.27
2018-09-19T11:24:39.443Z,29.33
2018-09-19T11:29:42.532Z,29.40
2018-09-19T11:34:45.651Z,29.38
2018-09-19T11:39:48.719Z,29.47
2018-09-19T11:44:52.097Z,29.51
2018-09-19T11:49:56.745Z,29.59
2018-09-19T11:55:00.107Z,29.80
2018-09-19T12:00:03.667Z,29.85
2018-09-19T12:05:06.815Z,29.86
2018-09-19T12:10:09.831Z,30.12
2018-09-19T12:15:12.845Z,30.37
2018-09-19T12:20:15.905Z,30.51
2018-09-19T12:25:18.923Z,30.38
2018-09-19T12:30:21.934Z,30.53
2018-09-19T12:35:26.098Z,30.43
2018-09-19T12:40:30.043Z,30.49
2018-09-19T12:45:33.623Z,30.63
2018-09-19T12:50:36.672Z,30.76
2018-09-19T12:55:40.051Z,31.19
2018-09-19T13:00:43.062Z,31.43
2018-09-19T13:05:46.094Z,31.58
2018-09-19T13:10:49.258Z,31.34
2018-09-19T13:15:52.326Z,31.36
2018-09-19T13:20:56.214Z,31.44
2018-09-19T13:25:59.667Z,31.61
2018-09-19T13:31:03.112Z,31.51
2018-09-19T13:36:06.291Z,31.44
2018-09-19T13:41:11.755Z,31.56
2018-09-19T13:46:14.853Z,31.44
2018-09-19T13:51:23.893Z,31.38
2018-09-19T13:56:27.724Z,31.60
2018-09-19T14:01:31.762Z,31.62
2018-09-19T14:06:35.218Z,31.72
2018-09-19T14:11:38.656Z,31.72
2018-09-19T14:16:41.758Z,31.44
2018-09-19T14:21:44.910Z,31.42
2018-09-19T14:26:47.995Z,31.54
2018-09-19T14:31:56.994Z,31.54
2018-09-19T14:37:01.864Z,31.55
2018-09-19T14:42:08.062Z,31.69
2018-09-19T14:47:13.290Z,31.60
2018-09-19T14:52:18.984Z,31.51
2018-09-19T14:57:22.132Z,31.57
2018-09-19T15:02:26.251Z,31.40
2018-09-19T15:07:29.303Z,31.40
2018-09-19T15:12:32.327Z,31.40
2018-09-19T15:17:36.172Z,31.37
2018-09-19T15:22:41.551Z,31.32
2018-09-19T15:27:49.000Z,31.13
2018-09-19T15:32:52.874Z,31.02
2018-09-19T15:37:56.395Z,31.12
2018-09-19T15:42:59.400Z,31.31
2018-09-19T15:48:02.466Z,31.42
2018-09-19T15:53:05.619Z,31.43
2018-09-19T15:58:09.134Z,31.31
2018-09-19T16:03:14.563Z,31.27
2018-09-19T16:08:21.666Z,31.21
2018-09-19T16:13:24.698Z,30.96
2018-09-19T16:18:27.735Z,30.77
2018-09-19T16:23:30.731Z,30.45
2018-09-19T16:28:34.337Z,30.42
2018-09-19T16:33:39.610Z,30.31
2018-09-19T16:38:42.825Z,30.19
2018-09-19T16:43:46.701Z,29.99
2018-09-19T16:48:49.819Z,29.91
2018-09-19T16:53:54.408Z,29.77
2018-09-19T16:59:00.569Z,29.68
2018-09-19T17:04:04.882Z,29.49
2018-09-19T17:09:08.944Z,29.31
2018-09-19T17:14:12.512Z,29.14
2018-09-19T17:19:15.566Z,28.97
2018-09-19T17:24:18.879Z,28.80
2018-09-19T17:29:24.988Z,28.70
2018-09-19T17:34:33.582Z,28.52
2018-09-19T17:39:38.534Z,28.47
2018-09-19T17:44:41.649Z,28.37
2018-09-19T17:49:44.896Z,28.23
2018-09-19T17:54:47.950Z,28.08
2018-09-19T17:59:51.814Z,27.91
2018-09-19T18:04:58.392Z,27.77
2018-09-19T18:10:02.361Z,27.62
2018-09-19T18:15:05.864Z,27.56
2018-09-19T18:20:08.926Z,27.48
2018-09-19T18:25:12.022Z,27.38
2018-09-19T18:30:15.139Z,27.21
2018-09-19T18:48:48.355Z,26.55
2018-09-19T18:53:52.389Z,26.58
2018-09-19T18:58:56.117Z,26.56
2018-09-19T19:03:59.970Z,26.54
2018-09-19T19:09:05.597Z,26.55
2018-09-19T19:14:09.657Z,26.55
2018-09-19T19:19:13.600Z,26.53
2018-09-19T19:24:17.988Z,26.51
2018-09-19T19:29:21.589Z,26.47
2018-09-19T19:34:25.303Z,26.45
2018-09-19T19:39:28.875Z,26.38
2018-09-19T19:44:32.674Z,26.25
2018-09-19T19:49:36.629Z,26.16
2018-09-19T19:54:39.802Z,26.04
2018-09-19T19:59:42.842Z,26.00
2018-09-19T20:04:45.951Z,25.93
2018-09-19T20:09:49.080Z,25.89
2018-09-19T20:14:52.184Z,25.84
2018-09-19T20:19:55.363Z,25.79
2018-09-19T20:24:58.459Z,25.78
2018-09-19T20:30:01.763Z,25.70
2018-09-19T20:35:05.057Z,25.63
2018-09-19T20:40:08.152Z,25.57
2018-09-19T20:45:11.423Z,25.51
2018-09-19T20:50:14.464Z,25.47
2018-09-19T20:55:17.540Z,25.41
2018-09-19T21:00:20.582Z,25.36
2018-09-19T21:05:23.687Z,25.19
2018-09-19T21:10:26.803Z,25.00
2018-09-19T21:15:29.963Z,24.84
2018-09-19T21:20:33.071Z,24.68
2018-09-19T21:25:36.234Z,24.61
2018-09-19T21:30:39.316Z,24.52
2018-09-19T21:35:42.374Z,24.46
2018-09-19T21:40:45.487Z,24.40
2018-09-19T21:45:48.763Z,24.36
2018-09-19T21:50:51.869Z,24.29
2018-09-19T21:55:54.932Z,24.25
2018-09-19T22:01:03.706Z,24.16
2018-09-19T22:06:07.043Z,24.06
2018-09-19T22:11:10.142Z,23.96
2018-09-19T22:16:13.231Z,23.87
2018-09-19T22:21:16.278Z,23.78
2018-09-19T22:26:19.366Z,23.69
2018-09-19T22:31:22.431Z,23.62
2018-09-19T22:36:25.503Z,23.52
2018-09-19T22:41:28.611Z,23.45
2018-09-19T22:46:31.675Z,23.39
2018-09-19T22:51:34.735Z,23.35
2018-09-19T22:56:37.770Z,23.34
2018-09-19T23:01:40.853Z,23.34
2018-09-19T23:06:43.851Z,23.30
2018-09-19T23:11:46.915Z,23.27
2018-09-19T23:16:49.969Z,23.17
2018-09-19T23:21:53.080Z,23.07
2018-09-19T23:26:56.147Z,22.97
2018-09-19T23:31:59.261Z,22.90
2018-09-19T23:37:02.330Z,22.81
2018-09-19T23:42:05.552Z,22.78
2018-09-19T23:47:08.665Z,22.75
2018-09-19T23:52:11.718Z,22.77
2018-09-19T23:57:14.798Z,22.73
